Time;durP1;ratioP1;P1;durP2;ratioP2;P2;SDS_P1;SDS_P2;PMS_P1;PMS_P2;Temp;Humidity;BMP_temperature;BMP_pressure;BME280_temperature;BME280_humidity;BME280_pressure;Samples;Min_cycle;Max_cycle;Signal;HPM_P1;HPM_P2
2022/11/15 00:00:41;;;;;;;45.60;18.80;;;;;;;-1.09;100.00;97959.92;107650;1265;69461;-69
2022/11/15 00:03:30;;;;;;;42.80;18.30;;;;;;;-1.11;100.00;97963.06;107656;1266;69224;-69
2022/11/15 00:06:19;;;;;;;41.10;20.30;;;;;;;-1.10;100.00;97962.86;107650;1265;58921;-68
2022/11/15 00:09:09;;;;;;;41.30;17.10;;;;;;;-1.08;100.00;97958.36;107692;1269;58891;-68
2022/11/15 00:11:58;;;;;;;72.20;22.40;;;;;;;-1.07;100.00;97958.87;107742;1267;70627;-68
2022/11/15 00:14:47;;;;;;;28.50;18.20;;;;;;;-1.04;100.00;97959.33;107698;1269;69701;-68
2022/11/15 00:17:35;;;;;;;40.40;20.10;;;;;;;-1.00;100.00;97958.25;107618;1269;69179;-68
2022/11/15 00:20:23;;;;;;;32.80;17.30;;;;;;;-0.99;100.00;97956.67;107678;1269;59026;-68
2022/11/15 00:23:12;;;;;;;39.90;17.60;;;;;;;-0.98;100.00;97950.48;107670;1269;58923;-68
2022/11/15 00:26:02;;;;;;;46.80;18.80;;;;;;;-0.98;100.00;97944.84;107675;1265;70775;-68
2022/11/15 00:28:53;;;;;;;37.30;18.00;;;;;;;-0.99;100.00;97940.60;107674;1269;69306;-69
2022/11/15 00:31:41;;;;;;;43.70;19.80;;;;;;;-0.98;100.00;97936.63;107609;1268;69954;-69
2022/11/15 00:34:32;;;;;;;29.50;16.40;;;;;;;-1.03;100.00;97937.74;107670;1265;58895;-69
2022/11/15 00:37:21;;;;;;;44.70;17.00;;;;;;;-1.04;100.00;97939.14;107652;1266;58967;-69
2022/11/15 00:40:12;;;;;;;33.80;16.70;;;;;;;-1.07;100.00;97935.42;107662;1265;71198;-69
2022/11/15 00:43:01;;;;;;;75.00;17.30;;;;;;;-1.08;100.00;97931.34;107714;1266;68169;-69
2022/11/15 00:45:50;;;;;;;41.00;18.00;;;;;;;-1.12;100.00;97928.67;107619;1268;69345;-69
2022/11/15 00:48:39;;;;;;;35.90;14.90;;;;;;;-1.19;100.00;97920.94;107689;1268;58903;-69
2022/11/15 00:51:28;;;;;;;39.80;15.20;;;;;;;-1.20;100.00;97923.70;107672;1269;58862;-69
2022/11/15 00:54:17;;;;;;;32.40;16.10;;;;;;;-1.22;100.00;97918.59;107650;1264;69807;-70
2022/11/15 00:57:06;;;;;;;34.20;18.00;;;;;;;-1.22;100.00;97917.73;107707;1265;69278;-70
2022/11/15 00:59:55;;;;;;;35.80;16.50;;;;;;;-1.19;100.00;97917.50;107747;1269;69538;-69
2022/11/15 01:02:45;;;;;;;40.50;15.60;;;;;;;-1.20;100.00;97914.80;107708;1265;58894;-69
2022/11/15 01:05:33;;;;;;;42.10;16.20;;;;;;;-1.23;100.00;97906.98;107675;1269;58910;-71
2022/11/15 01:08:22;;;;;;;19.70;11.30;;;;;;;-1.32;100.00;97903.89;107877;1266;71004;-70
2022/11/15 01:11:12;;;;;;;53.50;17.60;;;;;;;-1.39;100.00;97900.42;107681;1265;69142;-70
2022/11/15 01:14:00;;;;;;;55.90;15.80;;;;;;;-1.43;100.00;97898.79;107690;1265;69876;-70
2022/11/15 01:16:50;;;;;;;19.50;9.90;;;;;;;-1.44;100.00;97897.77;107670;1265;58953;-70
2022/11/15 01:19:39;;;;;;;42.00;14.90;;;;;;;-1.49;100.00;97895.98;107654;1265;58857;-70
2022/11/15 01:22:29;;;;;;;;;;;;;;;-1.53;100.00;97896.39;107686;1269;70601;-70
2022/11/15 01:25:17;;;;;;;16.30;10.30;;;;;;;-1.59;100.00;97890.69;107721;1269;69082;-70
2022/11/15 01:28:07;;;;;;;29.20;17.90;;;;;;;-1.60;100.00;97891.55;107686;1269;69690;-70
2022/11/15 01:30:59;;;;;;;24.40;12.40;;;;;;;-1.62;100.00;97891.08;107712;1266;58982;-70
2022/11/15 01:33:49;;;;;;;21.70;15.50;;;;;;;-1.64;100.00;97889.73;107697;1269;58873;-70
2022/11/15 01:36:38;;;;;;;45.00;18.00;;;;;;;-1.63;100.00;97886.64;107841;1265;70836;-70
2022/11/15 01:39:26;;;;;;;52.00;16.90;;;;;;;-1.62;100.00;97879.80;107659;1269;69209;-70
2022/11/15 01:42:16;;;;;;;30.30;16.60;;;;;;;-1.62;100.00;97880.83;107636;1269;69973;-70
2022/11/15 01:45:12;;;;;;;21.40;13.20;;;;;;;-1.64;100.00;97878.64;107665;1269;58970;-70
2022/11/15 01:48:02;;;;;;;37.60;17.80;;;;;;;-1.64;100.00;97875.19;107687;1269;58894;-70
2022/11/15 01:50:52;;;;;;;21.00;13.60;;;;;;;-1.63;100.00;97872.10;107720;1269;70609;-71
2022/11/15 01:53:46;;;;;;;27.20;15.20;;;;;;;-1.61;100.00;97876.19;107693;1269;69572;-70
2022/11/15 01:56:41;;;;;;;22.10;13.90;;;;;;;-1.59;100.00;97871.86;107624;1269;69250;-70
2022/11/15 01:59:31;;;;;;;79.40;21.80;;;;;;;-1.53;100.00;97873.65;107660;1265;58980;-70
2022/11/15 02:02:20;;;;;;;53.00;18.70;;;;;;;-1.50;100.00;97872.05;107799;1269;58867;-70
2022/11/15 02:05:09;;;;;;;45.90;18.50;;;;;;;-1.48;100.00;97868.61;107824;1265;70463;-70
2022/11/15 02:08:01;;;;;;;73.30;22.00;;;;;;;-1.47;100.00;97865.69;107560;1269;69094;-70
2022/11/15 02:10:49;;;;;;;56.70;19.60;;;;;;;-1.44;100.00;97866.99;107794;1269;68622;-70
2022/11/15 02:13:39;;;;;;;53.00;18.00;;;;;;;-1.41;100.00;97859.59;107763;1260;58925;-72
2022/11/15 02:16:31;;;;;;;41.20;15.40;;;;;;;-1.41;100.00;97861.13;107677;1266;58849;-70
2022/11/15 02:19:33;;;;;;;29.90;15.40;;;;;;;-1.41;100.00;97858.39;107672;1269;70140;-70
2022/11/15 02:22:44;;;;;;;33.50;15.40;;;;;;;-1.43;100.00;97852.45;107836;1262;69281;-70
2022/11/15 02:26:00;;;;;;;24.00;12.30;;;;;;;-1.43;100.00;97848.85;107692;1265;68474;-70
2022/11/15 02:29:32;;;;;;;43.30;13.90;;;;;;;-1.42;100.00;97845.42;107654;1265;58983;-70
2022/11/15 02:32:25;;;;;;;27.20;12.10;;;;;;;-1.46;100.00;97838.85;107651;1268;58913;-70
2022/11/15 02:35:45;;;;;;;79.00;16.10;;;;;;;-1.51;100.00;97838.05;107796;1269;70965;-70
2022/11/15 02:38:57;;;;;;;71.80;14.60;;;;;;;-1.60;100.00;97836.70;107718;1269;67375;-70
2022/11/15 02:41:57;;;;;;;23.50;12.00;;;;;;;-1.65;100.00;97837.45;107796;1265;68294;-70
2022/11/15 02:44:47;;;;;;;84.60;18.00;;;;;;;-1.70;100.00;97836.52;107679;1265;58956;-70
2022/11/15 02:47:43;;;;;;;29.10;11.50;;;;;;;-1.75;100.00;97835.91;107719;1265;58909;-69
2022/11/15 02:50:33;;;;;;;56.10;15.60;;;;;;;-1.76;100.00;97834.23;107609;1268;70832;-70
2022/11/15 02:53:26;;;;;;;29.80;14.20;;;;;;;-1.76;100.00;97836.63;107690;1265;69540;-70
2022/11/15 02:56:14;;;;;;;90.30;20.60;;;;;;;-1.75;100.00;97836.60;107650;1269;70364;-70
2022/11/15 02:59:22;;;;;;;81.70;21.00;;;;;;;-1.76;100.00;97837.80;107647;1265;58917;-70
2022/11/15 03:02:52;;;;;;;38.00;14.80;;;;;;;-1.79;100.00;97837.19;107686;1265;58874;-70
2022/11/15 03:06:23;;;;;;;85.10;19.80;;;;;;;-1.83;100.00;97831.60;107701;1264;70147;-70
2022/11/15 03:09:20;;;;;;;26.60;11.70;;;;;;;-1.88;100.00;97833.23;107681;1265;69206;-70
2022/11/15 03:12:20;;;;;;;20.50;13.30;;;;;;;-1.86;100.00;97830.11;107668;1266;69611;-70
2022/11/15 03:15:22;;;;;;;18.20;11.10;;;;;;;-1.80;100.00;97827.81;107701;1269;58969;-70
2022/11/15 03:18:20;;;;;;;26.70;11.80;;;;;;;-1.78;100.00;97825.19;107685;1268;58922;-70
2022/11/15 03:21:13;;;;;;;46.50;15.90;;;;;;;-1.74;100.00;97824.80;107821;1265;70854;-69
2022/11/15 03:24:05;;;;;;;25.20;15.00;;;;;;;-1.77;100.00;97825.52;107721;1269;69660;-70
2022/11/15 03:26:55;;;;;;;32.30;14.70;;;;;;;-1.77;100.00;97821.77;107659;1265;69530;-70
2022/11/15 03:29:50;;;;;;;23.30;11.60;;;;;;;-1.77;100.00;97822.96;107714;1265;58892;-70
2022/11/15 03:32:50;;;;;;;28.80;14.10;;;;;;;-1.79;100.00;97816.33;107652;1269;58905;-70
2022/11/15 03:35:43;;;;;;;23.20;14.20;;;;;;;-1.85;100.00;97813.88;107812;1269;69650;-70
2022/11/15 03:38:33;;;;;;;15.10;10.40;;;;;;;-1.93;100.00;97812.64;107677;1269;69507;-70
2022/11/15 03:41:41;;;;;;;21.20;11.60;;;;;;;-2.00;100.00;97813.10;107648;1269;68502;-70
2022/11/15 03:44:41;;;;;;;23.80;12.20;;;;;;;-2.11;100.00;97817.37;107648;1269;59327;-70
2022/11/15 03:47:36;;;;;;;;;;;;;;;-2.18;100.00;97816.11;107676;1269;58922;-70
2022/11/15 03:50:25;;;;;;;14.50;9.80;;;;;;;-2.23;100.00;97817.38;107445;1269;70973;-70
2022/11/15 03:53:13;;;;;;;17.10;11.20;;;;;;;-2.28;100.00;97812.34;107730;1269;68996;-70
2022/11/15 03:56:02;;;;;;;12.80;9.30;;;;;;;-2.30;100.00;97807.94;107597;1269;69674;-70
2022/11/15 03:58:51;;;;;;;19.80;12.40;;;;;;;-2.30;100.00;97808.13;107644;1265;58892;-70
2022/11/15 04:01:40;;;;;;;17.90;10.50;;;;;;;-2.36;100.00;97802.89;107439;1269;58914;-72
2022/11/15 04:04:29;;;;;;;16.40;8.80;;;;;;;-2.34;100.00;97802.02;107743;1269;70687;-70
2022/11/15 04:07:17;;;;;;;26.00;10.50;;;;;;;-2.33;100.00;97799.10;107579;1266;69611;-70
2022/11/15 04:10:06;;;;;;;16.60;11.10;;;;;;;-2.35;100.00;97797.09;107782;1265;68902;-70
2022/11/15 04:12:54;;;;;;;26.00;12.40;;;;;;;-2.38;100.00;97802.24;107760;1265;58978;-70
2022/11/15 04:15:42;;;;;;;32.00;11.20;;;;;;;-2.35;100.00;97797.78;107796;1269;58984;-70
2022/11/15 04:18:30;;;;;;;25.40;10.50;;;;;;;-2.33;100.00;97796.36;107772;1265;71127;-70
2022/11/15 04:24:24;;;;;;;12.90;8.60;;;;;;;-2.33;100.00;97789.02;107745;1269;69467;-70
2022/11/15 04:27:13;;;;;;;33.70;12.30;;;;;;;-2.34;100.00;97792.98;107788;1265;58920;-70
2022/11/15 04:30:00;;;;;;;40.60;12.80;;;;;;;-2.35;100.00;97791.64;107796;1269;58928;-70
2022/11/15 04:32:48;;;;;;;28.30;12.40;;;;;;;-2.34;100.00;97794.85;107763;1269;69736;-70
2022/11/15 04:35:37;;;;;;;36.90;15.10;;;;;;;-2.34;100.00;97796.20;107810;1265;69039;-70
2022/11/15 04:38:26;;;;;;;22.60;12.20;;;;;;;-2.31;100.00;97792.23;107792;1265;69152;-70
2022/11/15 04:41:15;;;;;;;25.20;12.10;;;;;;;-2.31;100.00;97788.16;107796;1269;58880;-70
2022/11/15 04:44:02;;;;;;;25.40;11.50;;;;;;;-2.27;100.00;97785.35;107805;1266;58972;-70
2022/11/15 04:46:50;;;;;;;55.80;16.90;;;;;;;-2.22;100.00;97787.83;107741;1269;69821;-70
2022/11/15 04:49:37;;;;;;;26.00;14.10;;;;;;;-2.19;100.00;97783.85;107807;1267;68258;-70
2022/11/15 04:52:25;;;;;;;15.40;11.60;;;;;;;-2.21;100.00;97784.74;107786;1269;69233;-70
2022/11/15 04:55:13;;;;;;;21.00;12.50;;;;;;;-2.20;100.00;97789.35;107778;1269;58884;-70
2022/11/15 04:58:02;;;;;;;18.90;12.60;;;;;;;-2.20;100.00;97784.73;107766;1269;58931;-70
2022/11/15 05:00:50;;;;;;;15.70;11.10;;;;;;;-2.18;100.00;97785.89;107823;1269;71212;-70
2022/11/15 05:06:46;;;;;;;16.10;9.40;;;;;;;-2.16;100.00;97793.72;107742;1265;69299;-70
2022/11/15 05:09:33;;;;;;;15.20;11.50;;;;;;;-2.16;100.00;97794.05;107794;1265;58960;-70
2022/11/15 05:12:20;;;;;;;12.90;8.80;;;;;;;-2.15;100.00;97795.41;107659;1265;58927;-71
2022/11/15 05:15:08;;;;;;;21.00;11.00;;;;;;;-2.20;100.00;97798.90;107647;1269;71616;-69
2022/11/15 05:18:00;;;;;;;26.00;13.70;;;;;;;-2.20;100.00;97798.06;107686;1269;69640;-69
2022/11/15 05:20:48;;;;;;;13.70;11.00;;;;;;;-2.21;100.00;97799.27;107662;1266;69669;-69
2022/11/15 05:23:36;;;;;;;19.80;13.50;;;;;;;-2.24;100.00;97798.45;107784;1265;58924;-71
2022/11/15 05:26:24;;;;;;;21.70;15.10;;;;;;;-2.26;100.00;97800.21;107648;1269;58863;-69
2022/11/15 05:29:11;;;;;;;24.70;14.10;;;;;;;-2.25;100.00;97795.73;107679;1269;71245;-69
2022/11/15 05:32:00;;;;;;;42.20;16.40;;;;;;;-2.22;100.00;97794.83;107624;1265;68672;-69
2022/11/15 05:34:47;;;;;;;19.30;14.40;;;;;;;-2.21;100.00;97795.66;107632;1269;70000;-70
2022/11/15 05:37:35;;;;;;;31.00;16.50;;;;;;;-2.23;100.00;97794.33;107629;1269;58924;-70
2022/11/15 05:40:24;;;;;;;29.60;14.90;;;;;;;-2.23;100.00;97795.02;107641;1268;59384;-71
2022/11/15 05:43:12;;;;;;;25.90;15.50;;;;;;;-2.24;100.00;97794.36;107631;1269;70071;-73
2022/11/15 05:46:03;;;;;;;23.10;14.00;;;;;;;-2.28;100.00;97794.42;107648;1265;69230;-72
2022/11/15 05:48:53;;;;;;;30.50;15.40;;;;;;;-2.27;100.00;97795.60;107625;1265;68951;-73
2022/11/15 05:51:44;;;;;;;19.60;12.70;;;;;;;-2.26;100.00;97797.80;107656;1265;59315;-71
2022/11/15 05:54:33;;;;;;;39.00;16.00;;;;;;;-2.24;100.00;97804.08;107650;1265;58918;-71
2022/11/15 05:57:20;;;;;;;29.80;14.80;;;;;;;-2.26;100.00;97803.77;107641;1265;70113;-70
2022/11/15 06:00:09;;;;;;;39.60;17.20;;;;;;;-2.22;100.00;97803.88;107657;1270;69861;-71
2022/11/15 06:02:57;;;;;;;29.40;14.50;;;;;;;-2.18;100.00;97799.72;107677;1269;69964;-71
2022/11/15 06:05:45;;;;;;;17.80;12.60;;;;;;;-2.19;100.00;97800.42;107666;1269;58860;-74
2022/11/15 06:08:33;;;;;;;20.40;13.80;;;;;;;-2.19;100.00;97799.05;107702;1269;58925;-72
2022/11/15 06:11:20;;;;;;;35.30;16.70;;;;;;;-2.17;100.00;97797.82;107692;1265;71044;-71
2022/11/15 06:14:08;;;;;;;25.40;15.20;;;;;;;-2.15;100.00;97800.37;107637;1268;69066;-71
2022/11/15 06:16:55;;;;;;;24.20;14.70;;;;;;;-2.15;100.00;97805.48;107581;1269;69369;-71
2022/11/15 06:19:43;;;;;;;48.10;19.90;;;;;;;-2.12;100.00;97808.34;107600;1269;58954;-71
2022/11/15 06:22:30;;;;;;;48.00;19.10;;;;;;;-2.12;100.00;97805.44;107513;1269;58907;-71
2022/11/15 06:25:18;;;;;;;27.80;15.10;;;;;;;-2.11;100.00;97806.61;107651;1269;70011;-71
2022/11/15 06:28:05;;;;;;;45.60;17.50;;;;;;;-2.11;100.00;97812.42;107660;1269;68221;-70
2022/11/15 06:30:53;;;;;;;41.60;15.00;;;;;;;-2.10;100.00;97809.66;107625;1269;69131;-71
2022/11/15 06:33:41;;;;;;;29.40;16.20;;;;;;;-2.13;100.00;97802.72;107631;1266;58917;-71
2022/11/15 06:36:28;;;;;;;21.40;13.50;;;;;;;-2.11;100.00;97797.38;107627;1269;58929;-71
2022/11/15 06:39:16;;;;;;;33.30;17.70;;;;;;;-2.01;100.00;97798.59;107711;1269;69973;-71
2022/11/15 06:42:08;;;;;;;27.40;18.00;;;;;;;-1.96;100.00;97797.64;107623;1269;69197;-71
2022/11/15 06:44:55;;;;;;;37.30;22.90;;;;;;;-1.88;100.00;97792.73;107658;1269;69188;-71
2022/11/15 06:47:46;;;;;;;35.50;20.30;;;;;;;-1.81;100.00;97794.65;107670;1266;58977;-71
2022/11/15 06:50:33;;;;;;;32.00;19.40;;;;;;;-1.72;100.00;97790.05;107671;1270;58876;-71
2022/11/15 06:53:23;;;;;;;36.70;20.10;;;;;;;-1.60;100.00;97786.77;107652;1269;70268;-71
2022/11/15 06:56:11;;;;;;;34.80;18.60;;;;;;;-1.53;100.00;97786.14;107657;1269;69211;-71
2022/11/15 06:58:58;;;;;;;26.00;15.70;;;;;;;-1.50;100.00;97788.31;107659;1269;69861;-70
2022/11/15 07:01:46;;;;;;;51.60;19.70;;;;;;;-1.40;100.00;97794.10;107631;1265;59726;-70
2022/11/15 07:04:34;;;;;;;26.00;16.50;;;;;;;-1.43;100.00;97790.90;107698;1265;59778;-70
2022/11/15 07:07:22;;;;;;;27.80;16.40;;;;;;;-1.36;100.00;97790.26;107615;1267;71713;-70
2022/11/15 07:10:10;;;;;;;24.40;16.40;;;;;;;-1.36;100.00;97785.98;107654;1266;70039;-70
2022/11/15 07:12:57;;;;;;;26.70;16.90;;;;;;;-1.37;100.00;97782.41;107668;1265;67689;-70
2022/11/15 07:15:47;;;;;;;32.40;20.00;;;;;;;-1.24;100.00;97782.15;107566;1270;59773;-70
2022/11/15 07:18:37;;;;;;;25.50;16.50;;;;;;;-1.17;100.00;97778.94;107665;1269;59696;-70
2022/11/15 07:21:24;;;;;;;31.10;18.40;;;;;;;-1.00;100.00;97772.44;107648;1269;71732;-70
2022/11/15 07:24:14;;;;;;;43.40;19.90;;;;;;;-0.85;100.00;97772.62;107620;1269;68781;-70
2022/11/15 07:27:01;;;;;;;30.90;17.60;;;;;;;-0.73;100.00;97768.95;107619;1269;69147;-70
2022/11/15 07:29:48;;;;;;;38.30;17.10;;;;;;;-0.61;100.00;97772.08;107605;1269;59742;-70
2022/11/15 07:32:36;;;;;;;22.10;15.70;;;;;;;-0.51;100.00;97762.42;107601;1274;59694;-71
2022/11/15 07:35:25;;;;;;;24.50;15.90;;;;;;;-0.42;100.00;97760.70;107640;1269;71745;-71
2022/11/15 07:38:14;;;;;;;32.30;18.60;;;;;;;-0.38;99.99;97762.30;107625;1265;69201;-71
2022/11/15 07:41:04;;;;;;;22.60;16.10;;;;;;;-0.31;99.92;97759.25;107652;1269;69597;-70
2022/11/15 07:44:01;;;;;;;25.00;16.80;;;;;;;-0.30;97.74;97761.09;107614;1269;59690;-73
2022/11/15 07:46:48;;;;;;;21.40;15.30;;;;;;;-0.23;97.28;97760.25;107619;1269;59760;-73
2022/11/15 07:49:36;;;;;;;22.60;16.10;;;;;;;-0.07;97.09;97757.79;107603;1269;70676;-72
2022/11/15 07:52:24;;;;;;;23.90;16.30;;;;;;;0.00;96.25;97755.91;107631;1269;69226;-73
2022/11/15 07:55:11;;;;;;;25.30;16.80;;;;;;;0.03;96.04;97752.23;107587;1269;68629;-73
2022/11/15 07:58:03;;;;;;;19.80;14.00;;;;;;;0.15;95.32;97747.64;107615;1268;59753;-72
2022/11/15 08:00:51;;;;;;;51.10;17.30;;;;;;;0.11;95.49;97743.97;107590;1269;59704;-72
2022/11/15 08:03:38;;;;;;;22.20;15.30;;;;;;;0.17;95.35;97747.23;107650;1269;71378;-72
2022/11/15 08:06:26;;;;;;;23.00;14.90;;;;;;;0.42;96.17;97739.40;107623;1269;69819;-73
2022/11/15 08:09:13;;;;;;;28.70;17.00;;;;;;;0.71;96.95;97732.23;107560;1266;67612;-73
2022/11/15 08:12:01;;;;;;;35.00;15.60;;;;;;;0.81;95.47;97729.89;107610;1266;59757;-72
2022/11/15 08:14:49;;;;;;;41.40;19.10;;;;;;;0.80;94.04;97731.48;107740;1269;59665;-72
2022/11/15 08:17:36;;;;;;;20.80;13.60;;;;;;;0.76;94.07;97733.83;107661;1264;71259;-72
2022/11/15 08:20:26;;;;;;;41.60;17.80;;;;;;;0.79;94.70;97734.57;107637;1268;69894;-72
2022/11/15 08:23:13;;;;;;;36.20;22.20;;;;;;;0.87;94.57;97733.66;107712;1267;68621;-71
2022/11/15 08:26:04;;;;;;;43.90;24.70;;;;;;;0.88;94.61;97733.30;107655;1265;59774;-73
2022/11/15 08:28:52;;;;;;;28.30;16.80;;;;;;;0.79;95.36;97730.81;107632;1270;59653;-72
2022/11/15 08:31:39;;;;;;;60.10;29.80;;;;;;;0.69;95.55;97732.31;107634;1268;71270;-72
2022/11/15 08:34:27;;;;;;;24.80;14.80;;;;;;;0.65;95.64;97727.27;107734;1269;69910;-72
2022/11/15 08:37:14;;;;;;;45.60;19.30;;;;;;;0.71;96.67;97725.21;107631;1269;69676;-72
2022/11/15 08:40:04;;;;;;;76.20;20.40;;;;;;;0.97;96.28;97720.15;107629;1270;59754;-73
2022/11/15 08:42:51;;;;;;;27.60;16.30;;;;;;;0.89;96.27;97715.06;107652;1269;60070;-72
2022/11/15 08:45:41;;;;;;;40.80;19.10;;;;;;;0.89;96.53;97712.15;107664;1269;70853;-73
2022/11/15 08:48:29;;;;;;;25.50;16.20;;;;;;;1.06;96.55;97707.91;107685;1269;69954;-73
2022/11/15 08:51:18;;;;;;;27.10;16.60;;;;;;;1.17;97.04;97702.75;107608;1269;70080;-73
2022/11/15 08:54:05;;;;;;;21.40;14.80;;;;;;;1.32;95.71;97696.80;107641;1269;59749;-73
2022/11/15 08:56:53;;;;;;;18.10;12.80;;;;;;;1.58;95.11;97694.57;107651;1266;59696;-73
2022/11/15 08:59:40;;;;;;;19.50;12.40;;;;;;;1.87;94.45;97687.27;107695;1269;70876;-72
2022/11/15 09:02:28;;;;;;;20.00;13.80;;;;;;;2.20;93.59;97682.20;107487;1270;69861;-73
2022/11/15 09:05:16;;;;;;;21.00;13.10;;;;;;;2.41;92.64;97674.36;107653;1269;70009;-73
2022/11/15 09:08:04;;;;;;;23.50;14.90;;;;;;;2.47;90.36;97669.70;107662;1271;59756;-73
2022/11/15 09:11:12;;;;;;;29.10;15.40;;;;;;;2.67;90.42;97672.22;107665;1270;59751;-73
2022/11/15 09:14:00;;;;;;;17.50;12.10;;;;;;;2.76;91.09;97675.16;107646;1270;71962;-72
2022/11/15 09:16:47;;;;;;;17.70;12.60;;;;;;;3.02;91.91;97672.13;107689;1269;69221;-72
2022/11/15 09:19:36;;;;;;;24.30;15.80;;;;;;;3.34;90.90;97668.29;107679;1265;69490;-72
2022/11/15 09:22:24;;;;;;;22.50;15.30;;;;;;;3.46;88.90;97669.69;107661;1265;59725;-72
2022/11/15 09:25:11;;;;;;;26.20;16.60;;;;;;;3.58;89.29;97670.75;107646;1269;59711;-72
2022/11/15 09:27:59;;;;;;;21.60;13.80;;;;;;;3.36;87.64;97661.99;107579;1269;71368;-72
2022/11/15 09:30:46;;;;;;;16.90;12.00;;;;;;;3.74;89.18;97655.27;107626;1269;69834;-72
2022/11/15 09:33:35;;;;;;;17.60;12.20;;;;;;;4.46;89.84;97650.44;107616;1265;68590;-72
2022/11/15 09:36:23;;;;;;;17.20;12.20;;;;;;;5.06;84.98;97645.31;107660;1269;59694;-72
2022/11/15 09:39:11;;;;;;;24.10;17.30;;;;;;;5.37;80.97;97639.67;107602;1265;59685;-71
2022/11/15 09:42:35;;;;;;;28.90;20.00;;;;;;;5.51;80.99;97633.33;107639;1268;71619;-71
2022/11/15 09:45:26;;;;;;;28.20;19.10;;;;;;;5.51;80.15;97627.61;107604;1270;69832;-71
2022/11/15 09:48:32;;;;;;;25.40;18.00;;;;;;;5.68;78.47;97615.67;107625;1265;68742;-73
2022/11/15 09:51:22;;;;;;;25.50;17.80;;;;;;;6.66;80.84;97615.33;107689;1269;59767;-73
2022/11/15 09:54:17;;;;;;;28.00;19.70;;;;;;;7.30;77.98;97617.04;107774;1268;59661;-71
2022/11/15 09:57:21;;;;;;;24.40;17.50;;;;;;;7.76;70.72;97607.60;107727;1270;71443;-72
2022/11/15 10:00:13;;;;;;;25.60;20.20;;;;;;;8.23;73.63;97609.66;107712;1269;69173;-72
2022/11/15 10:03:14;;;;;;;25.50;20.20;;;;;;;8.23;69.43;97604.29;107657;1269;68838;-72
2022/11/15 10:05:46;;;;;;;24.00;18.70;;;;;;;8.53;68.11;97604.70;107643;1269;59707;-72
2022/11/15 10:08:34;;;;;;;25.80;20.00;;;;;;;9.63;66.26;97602.98;107689;1265;59782;-72
2022/11/15 10:11:10;;;;;;;25.20;19.70;;;;;;;10.21;63.86;97597.16;107704;1265;71375;-72
2022/11/15 10:14:13;;;;;;;23.90;19.70;;;;;;;10.36;61.84;97592.19;107666;1269;69060;-71
2022/11/15 10:17:04;;;;;;;24.00;18.30;;;;;;;10.66;62.12;97589.88;107678;1269;68443;-72
2022/11/15 10:20:05;;;;;;;25.10;20.70;;;;;;;11.53;62.11;97581.52;107485;1270;59720;-71
2022/11/15 10:22:50;;;;;;;30.50;22.50;;;;;;;11.54;58.66;97572.53;107696;1269;59663;-71
2022/11/15 10:25:19;;;;;;;25.40;20.70;;;;;;;11.45;58.19;97571.85;107657;1268;71212;-71
2022/11/15 10:28:11;;;;;;;21.70;17.50;;;;;;;11.57;58.01;97564.69;107628;1269;69943;-71
2022/11/15 10:30:46;;;;;;;28.40;21.40;;;;;;;11.68;56.75;97557.38;107618;1270;68642;-72
2022/11/15 10:33:18;;;;;;;22.30;18.10;;;;;;;11.84;57.69;97552.17;107632;1270;59730;-71
2022/11/15 10:35:48;;;;;;;27.90;20.80;;;;;;;12.23;57.48;97550.08;107729;1269;59768;-72
2022/11/15 10:38:16;;;;;;;29.40;22.40;;;;;;;11.57;55.71;97553.45;107694;1269;71764;-72
2022/11/15 10:40:45;;;;;;;27.40;21.00;;;;;;;11.54;55.77;97545.63;107638;1265;68062;-72
2022/11/15 10:43:18;;;;;;;26.30;19.50;;;;;;;11.14;56.47;97544.95;107684;1270;69777;-72
2022/11/15 10:45:48;;;;;;;25.90;20.20;;;;;;;11.00;57.14;97545.64;107693;1270;59771;-72
2022/11/15 10:48:17;;;;;;;30.10;23.60;;;;;;;11.88;55.97;97540.86;107678;1270;59776;-72
2022/11/15 10:50:47;;;;;;;31.60;25.30;;;;;;;11.85;55.93;97535.46;107682;1270;71770;-72
2022/11/15 10:53:24;;;;;;;34.60;25.90;;;;;;;11.46;55.89;97535.95;107693;1270;68442;-72
2022/11/15 10:55:56;;;;;;;32.40;24.60;;;;;;;11.85;55.92;97534.99;107662;1266;69904;-73
2022/11/15 10:58:36;;;;;;;34.10;25.10;;;;;;;12.42;54.96;97523.77;107696;1269;59711;-72
2022/11/15 11:01:27;;;;;;;32.00;24.30;;;;;;;13.05;52.76;97515.76;107620;1270;59730;-72
2022/11/15 11:04:02;;;;;;;27.70;21.80;;;;;;;13.44;53.03;97509.28;107660;1270;71335;-72
2022/11/15 11:06:53;;;;;;;24.20;19.30;;;;;;;14.13;49.13;97510.62;107665;1269;69427;-73
2022/11/15 11:09:42;;;;;;;24.90;21.30;;;;;;;14.42;48.22;97508.31;107651;1270;69972;-72
2022/11/15 11:12:14;;;;;;;23.00;19.80;;;;;;;14.51;48.49;97503.89;107670;1271;59725;-72
2022/11/15 11:14:43;;;;;;;27.90;22.30;;;;;;;14.65;47.30;97496.37;107680;1265;59665;-72
2022/11/15 11:17:31;;;;;;;23.50;18.10;;;;;;;14.61;47.82;97494.02;107704;1269;69679;-72
2022/11/15 11:20:11;;;;;;;27.00;22.40;;;;;;;14.86;47.57;97491.34;107699;1270;69017;-73
2022/11/15 11:23:22;;;;;;;25.40;20.70;;;;;;;15.07;46.22;97482.74;107694;1270;69754;-72
2022/11/15 11:26:15;;;;;;;26.70;22.80;;;;;;;14.97;46.97;97475.77;107510;1270;59728;-72
2022/11/15 11:29:10;;;;;;;26.90;22.40;;;;;;;14.72;47.56;97474.69;107661;1270;59661;-72
2022/11/15 11:31:58;;;;;;;25.90;21.30;;;;;;;14.54;47.92;97474.70;107658;1270;71235;-72
2022/11/15 11:34:41;;;;;;;23.20;19.90;;;;;;;15.20;47.33;97460.17;107662;1269;69043;-73
2022/11/15 11:37:30;;;;;;;24.90;21.60;;;;;;;15.67;46.49;97454.80;107643;1265;69409;-73
2022/11/15 11:40:05;;;;;;;23.30;20.10;;;;;;;15.98;45.39;97448.93;107671;1270;60101;-73
2022/11/15 11:42:41;;;;;;;28.70;23.30;;;;;;;15.65;46.25;97441.80;107657;1269;59713;-73
2022/11/15 11:45:24;;;;;;;29.90;23.30;;;;;;;15.91;45.54;97438.35;107687;1270;70962;-73
2022/11/15 11:48:19;;;;;;;28.50;23.60;;;;;;;15.45;46.18;97438.20;107691;1269;67388;-73
2022/11/15 11:50:49;;;;;;;31.20;24.20;;;;;;;15.12;46.58;97435.42;107537;1270;69832;-73
2022/11/15 11:53:42;;;;;;;29.30;23.60;;;;;;;15.31;46.35;97429.32;107639;1269;59708;-73
2022/11/15 11:56:39;;;;;;;27.70;24.10;;;;;;;14.63;47.39;97427.60;107843;1270;59661;-73
2022/11/15 11:59:50;;;;;;;27.20;21.70;;;;;;;14.34;48.29;97423.80;107619;1269;70515;-73
2022/11/15 12:02:39;;;;;;;29.00;24.70;;;;;;;14.54;47.65;97412.96;107720;1270;70090;-71
2022/11/15 12:05:27;;;;;;;26.20;21.70;;;;;;;15.32;45.90;97406.61;107643;1271;69143;-72
2022/11/15 12:08:05;;;;;;;28.30;23.80;;;;;;;15.83;45.26;97398.17;107694;1269;59768;-72
2022/11/15 12:10:35;;;;;;;28.90;23.40;;;;;;;15.56;45.11;97393.48;107692;1265;59724;-71
2022/11/15 12:13:19;;;;;;;;;;;;;;;15.94;45.26;97392.80;107713;1269;71409;-70
2022/11/15 12:16:02;;;;;;;31.60;26.10;;;;;;;16.06;43.99;97385.43;107729;1269;69267;-72
2022/11/15 12:18:38;;;;;;;;;;;;;;;16.27;44.13;97381.65;107657;1265;69695;-73
2022/11/15 12:21:21;;;;;;;35.20;26.70;;;;;;;15.43;44.70;97375.91;107699;1265;59719;-72
2022/11/15 12:24:06;;;;;;;29.20;25.40;;;;;;;14.84;46.27;97375.31;107676;1270;59756;-73
2022/11/15 12:26:45;;;;;;;33.00;26.70;;;;;;;15.03;46.29;97375.41;107720;1266;71869;-72
2022/11/15 12:29:31;;;;;;;29.40;25.10;;;;;;;15.12;46.11;97374.15;107715;1272;68682;-72
2022/11/15 12:32:02;;;;;;;30.60;26.20;;;;;;;14.70;47.01;97369.45;107652;1271;69109;-71
2022/11/15 12:34:42;;;;;;;35.40;28.30;;;;;;;14.90;45.93;97370.30;107652;1271;59719;-72
2022/11/15 12:37:29;;;;;;;;;;;;;;;14.52;46.59;97372.97;107637;1269;59738;-73
2022/11/15 12:40:10;;;;;;;32.80;25.30;;;;;;;14.08;47.80;97372.09;107604;1272;72112;-72
2022/11/15 12:43:00;;;;;;;32.00;26.20;;;;;;;14.26;47.20;97367.20;107672;1269;68264;-73
2022/11/15 12:45:36;;;;;;;31.80;25.90;;;;;;;14.28;47.05;97372.27;107639;1270;69278;-74
2022/11/15 12:48:18;;;;;;;29.20;25.10;;;;;;;14.11;47.58;97376.08;107740;1270;59757;-72
2022/11/15 12:50:50;;;;;;;29.90;24.20;;;;;;;13.88;47.78;97372.98;107725;1265;59737;-73